sensor_id;sensor_type;location;lat;lon;timestamp;pressure;altitude;pressure_sealevel;temperature;humidity
70968;BME280;58629;48.808;8.820;2023-06-05T00:00:35;97198.97;;;11.45;72.09
70968;BME280;58629;48.808;8.820;2023-06-05T00:03:00;97194.56;;;11.19;72.70
70968;BME280;58629;48.808;8.820;2023-06-05T00:05:25;97191.25;;;11.15;73.20
70968;BME280;58629;48.808;8.820;2023-06-05T00:07:52;97188.84;;;11.20;73.56
70968;BME280;58629;48.808;8.820;2023-06-05T00:10:17;97198.78;;;11.16;73.29
70968;BME280;58629;48.808;8.820;2023-06-05T00:12:42;97193.94;;;11.11;73.83
70968;BME280;58629;48.808;8.820;2023-06-05T00:15:09;97196.59;;;11.11;74.52
70968;BME280;58629;48.808;8.820;2023-06-05T00:17:34;97196.94;;;11.13;74.05
70968;BME280;58629;48.808;8.820;2023-06-05T00:20:02;97201.88;;;11.11;73.48
70968;BME280;58629;48.808;8.820;2023-06-05T00:22:29;97198.97;;;11.06;73.89
70968;BME280;58629;48.808;8.820;2023-06-05T00:24:56;97203.13;;;11.07;73.13
70968;BME280;58629;48.808;8.820;2023-06-05T00:27:21;97198.97;;;11.06;73.52
70968;BME280;58629;48.808;8.820;2023-06-05T00:29:46;97196.72;;;11.04;73.03
70968;BME280;58629;48.808;8.820;2023-06-05T00:32:12;97197.16;;;11.03;72.98
70968;BME280;58629;48.808;8.820;2023-06-05T00:34:37;97195.38;;;10.96;72.77
70968;BME280;58629;48.808;8.820;2023-06-05T00:37:02;97198.88;;;10.90;73.29
70968;BME280;58629;48.808;8.820;2023-06-05T00:39:28;97196.66;;;10.88;73.36
70968;BME280;58629;48.808;8.820;2023-06-05T00:41:54;97196.72;;;10.85;73.28
70968;BME280;58629;48.808;8.820;2023-06-05T00:44:20;97197.25;;;10.76;74.32
70968;BME280;58629;48.808;8.820;2023-06-05T00:46:47;97193.91;;;10.72;73.75
70968;BME280;58629;48.808;8.820;2023-06-05T00:49:14;97197.38;;;10.69;74.17
70968;BME280;58629;48.808;8.820;2023-06-05T00:51:41;97193.00;;;10.59;74.97
70968;BME280;58629;48.808;8.820;2023-06-05T00:54:07;97194.81;;;10.62;74.87
70968;BME280;58629;48.808;8.820;2023-06-05T00:56:33;97198.72;;;10.58;75.47
70968;BME280;58629;48.808;8.820;2023-06-05T00:59:01;97204.03;;;10.54;75.45
70968;BME280;58629;48.808;8.820;2023-06-05T01:01:26;97197.13;;;10.37;74.93
70968;BME280;58629;48.808;8.820;2023-06-05T01:03:54;97203.53;;;10.39;75.49
70968;BME280;58629;48.808;8.820;2023-06-05T01:06:25;97200.22;;;10.32;75.77
70968;BME280;58629;48.808;8.820;2023-06-05T01:08:52;97206.28;;;10.32;76.09
70968;BME280;58629;48.808;8.820;2023-06-05T01:14:21;97209.59;;;10.13;75.52
70968;BME280;58629;48.808;8.820;2023-06-05T01:16:53;97202.59;;;10.00;75.30
70968;BME280;58629;48.808;8.820;2023-06-05T01:19:20;97210.97;;;9.95;76.04
70968;BME280;58629;48.808;8.820;2023-06-05T01:21:46;97209.31;;;10.04;76.36
70968;BME280;58629;48.808;8.820;2023-06-05T01:24:12;97205.84;;;10.11;76.35
70968;BME280;58629;48.808;8.820;2023-06-05T01:30:01;97200.16;;;10.12;75.26
70968;BME280;58629;48.808;8.820;2023-06-05T01:32:37;97201.00;;;10.06;76.40
70968;BME280;58629;48.808;8.820;2023-06-05T01:35:07;97205.53;;;10.05;76.88
70968;BME280;58629;48.808;8.820;2023-06-05T01:37:36;97203.72;;;9.99;77.60
70968;BME280;58629;48.808;8.820;2023-06-05T01:40:08;97209.13;;;9.92;78.08
70968;BME280;58629;48.808;8.820;2023-06-05T01:42:36;97199.69;;;9.91;78.33
70968;BME280;58629;48.808;8.820;2023-06-05T01:45:02;97199.69;;;9.91;78.13
70968;BME280;58629;48.808;8.820;2023-06-05T01:47:28;97205.78;;;9.88;78.57
70968;BME280;58629;48.808;8.820;2023-06-05T01:49:53;97199.38;;;9.85;78.99
70968;BME280;58629;48.808;8.820;2023-06-05T01:52:18;97200.94;;;9.83;79.09
70968;BME280;58629;48.808;8.820;2023-06-05T01:54:44;97198.28;;;9.83;78.97
70968;BME280;58629;48.808;8.820;2023-06-05T01:57:11;97196.03;;;9.81;78.67
70968;BME280;58629;48.808;8.820;2023-06-05T01:59:37;97200.75;;;9.70;79.31
70968;BME280;58629;48.808;8.820;2023-06-05T02:02:02;97197.16;;;9.53;80.02
70968;BME280;58629;48.808;8.820;2023-06-05T02:04:28;97194.78;;;9.32;80.13
70968;BME280;58629;48.808;8.820;2023-06-05T02:06:54;97191.19;;;9.16;81.49
70968;BME280;58629;48.808;8.820;2023-06-05T02:09:19;97191.16;;;9.19;82.19
70968;BME280;58629;48.808;8.820;2023-06-05T02:11:45;97188.44;;;9.26;81.91
70968;BME280;58629;48.808;8.820;2023-06-05T02:14:11;97193.22;;;9.38;81.18
70968;BME280;58629;48.808;8.820;2023-06-05T02:16:38;97192.81;;;9.40;80.54
70968;BME280;58629;48.808;8.820;2023-06-05T02:19:03;97199.19;;;9.42;81.16
70968;BME280;58629;48.808;8.820;2023-06-05T02:21:33;97191.63;;;9.44;80.77
70968;BME280;58629;48.808;8.820;2023-06-05T02:24:02;97191.66;;;9.41;80.73
70968;BME280;58629;48.808;8.820;2023-06-05T02:26:28;97196.56;;;9.42;80.79
70968;BME280;58629;48.808;8.820;2023-06-05T02:28:54;97199.91;;;9.46;81.52
70968;BME280;58629;48.808;8.820;2023-06-05T02:31:21;97197.97;;;9.50;80.98
70968;BME280;58629;48.808;8.820;2023-06-05T02:33:50;97195.69;;;9.52;81.01
70968;BME280;58629;48.808;8.820;2023-06-05T02:36:15;97190.00;;;9.54;80.82
70968;BME280;58629;48.808;8.820;2023-06-05T02:38:42;97198.69;;;9.54;80.51
70968;BME280;58629;48.808;8.820;2023-06-05T02:41:08;97196.41;;;9.53;80.52
70968;BME280;58629;48.808;8.820;2023-06-05T02:43:34;97201.00;;;9.49;79.68
70968;BME280;58629;48.808;8.820;2023-06-05T02:45:59;97195.75;;;9.45;80.62
70968;BME280;58629;48.808;8.820;2023-06-05T02:48:25;97202.63;;;9.39;80.36
70968;BME280;58629;48.808;8.820;2023-06-05T02:50:50;97187.56;;;9.36;80.07
70968;BME280;58629;48.808;8.820;2023-06-05T02:53:15;97192.63;;;9.24;80.53
70968;BME280;58629;48.808;8.820;2023-06-05T02:55:40;97183.00;;;9.07;80.85
70968;BME280;58629;48.808;8.820;2023-06-05T02:58:07;97182.59;;;9.08;82.44
70968;BME280;58629;48.808;8.820;2023-06-05T03:00:33;97184.09;;;9.09;82.05
70968;BME280;58629;48.808;8.820;2023-06-05T03:02:58;97190.09;;;9.13;81.49
70968;BME280;58629;48.808;8.820;2023-06-05T03:05:23;97193.13;;;9.12;81.42
70968;BME280;58629;48.808;8.820;2023-06-05T03:07:52;97189.00;;;9.07;81.47
70968;BME280;58629;48.808;8.820;2023-06-05T03:10:19;97183.78;;;9.04;81.61
70968;BME280;58629;48.808;8.820;2023-06-05T03:12:45;97191.66;;;9.07;82.04
70968;BME280;58629;48.808;8.820;2023-06-05T03:15:10;97180.38;;;9.03;81.31
70968;BME280;58629;48.808;8.820;2023-06-05T03:17:35;97188.00;;;8.98;81.38
70968;BME280;58629;48.808;8.820;2023-06-05T03:20:01;97191.03;;;8.96;81.63
70968;BME280;58629;48.808;8.820;2023-06-05T03:22:26;97188.75;;;8.98;81.60
70968;BME280;58629;48.808;8.820;2023-06-05T03:24:52;97185.75;;;8.96;82.07
70968;BME280;58629;48.808;8.820;2023-06-05T03:27:17;97188.41;;;8.96;81.98
70968;BME280;58629;48.808;8.820;2023-06-05T03:29:42;97186.91;;;8.92;81.95
70968;BME280;58629;48.808;8.820;2023-06-05T03:32:07;97185.75;;;8.96;82.22
70968;BME280;58629;48.808;8.820;2023-06-05T03:34:33;97193.38;;;8.91;82.28
70968;BME280;58629;48.808;8.820;2023-06-05T03:37:02;97184.72;;;8.87;82.59
70968;BME280;58629;48.808;8.820;2023-06-05T03:39:27;97198.66;;;8.91;81.68
70968;BME280;58629;48.808;8.820;2023-06-05T03:41:53;97183.69;;;8.77;82.23
70968;BME280;58629;48.808;8.820;2023-06-05T03:44:18;97189.06;;;8.66;82.69
70968;BME280;58629;48.808;8.820;2023-06-05T03:46:43;97191.38;;;8.61;83.97
70968;BME280;58629;48.808;8.820;2023-06-05T03:49:09;97187.94;;;8.67;82.82
70968;BME280;58629;48.808;8.820;2023-06-05T03:51:35;97194.34;;;8.66;83.13
70968;BME280;58629;48.808;8.820;2023-06-05T03:54:01;97193.13;;;8.74;83.17
70968;BME280;58629;48.808;8.820;2023-06-05T03:56:28;97203.66;;;8.78;82.95
70968;BME280;58629;48.808;8.820;2023-06-05T03:58:58;97195.38;;;8.76;82.39
70968;BME280;58629;48.808;8.820;2023-06-05T04:01:33;97201.47;;;8.69;83.28
70968;BME280;58629;48.808;8.820;2023-06-05T04:03:59;97204.91;;;8.66;83.22
70968;BME280;58629;48.808;8.820;2023-06-05T04:06:25;97204.50;;;8.68;83.26
70968;BME280;58629;48.808;8.820;2023-06-05T04:08:51;97204.94;;;8.63;82.80
70968;BME280;58629;48.808;8.820;2023-06-05T04:11:17;97201.31;;;8.46;83.83
70968;BME280;58629;48.808;8.820;2023-06-05T04:13:43;97205.09;;;8.45;84.48
70968;BME280;58629;48.808;8.820;2023-06-05T04:16:08;97210.34;;;8.49;84.53
70968;BME280;58629;48.808;8.820;2023-06-05T04:18:34;97209.81;;;8.64;84.84
70968;BME280;58629;48.808;8.820;2023-06-05T04:20:59;97213.50;;;8.74;84.50
70968;BME280;58629;48.808;8.820;2023-06-05T04:23:25;97214.59;;;8.80;83.82
70968;BME280;58629;48.808;8.820;2023-06-05T04:25:50;97218.66;;;8.88;83.80
70968;BME280;58629;48.808;8.820;2023-06-05T04:28:19;97216.00;;;8.88;83.93
70968;BME280;58629;48.808;8.820;2023-06-05T04:30:44;97211.50;;;8.89;83.62
70968;BME280;58629;48.808;8.820;2023-06-05T04:33:11;97214.81;;;8.96;83.06
70968;BME280;58629;48.808;8.820;2023-06-05T04:35:36;97209.09;;;9.01;82.40
70968;BME280;58629;48.808;8.820;2023-06-05T04:38:02;97221.44;;;9.11;82.61
70968;BME280;58629;48.808;8.820;2023-06-05T04:40:27;97212.69;;;9.18;82.84
70968;BME280;58629;48.808;8.820;2023-06-05T04:42:54;97218.78;;;9.15;82.86
70968;BME280;58629;48.808;8.820;2023-06-05T04:45:19;97209.06;;;9.05;82.92
70968;BME280;58629;48.808;8.820;2023-06-05T04:47:46;97212.69;;;9.18;83.36
70968;BME280;58629;48.808;8.820;2023-06-05T04:50:27;97212.69;;;9.18;82.24
70968;BME280;58629;48.808;8.820;2023-06-05T04:52:53;97205.22;;;9.13;81.70
70968;BME280;58629;48.808;8.820;2023-06-05T04:55:19;97205.88;;;9.20;82.51
70968;BME280;58629;48.808;8.820;2023-06-05T04:57:45;97212.94;;;9.30;82.52
70968;BME280;58629;48.808;8.820;2023-06-05T05:00:11;97214.53;;;9.54;83.56
70968;BME280;58629;48.808;8.820;2023-06-05T05:02:36;97215.44;;;9.71;82.77
70968;BME280;58629;48.808;8.820;2023-06-05T05:05:02;97215.22;;;9.89;81.95
70968;BME280;58629;48.808;8.820;2023-06-05T05:07:27;97214.22;;;10.06;81.32
70968;BME280;58629;48.808;8.820;2023-06-05T05:09:53;97218.13;;;10.24;80.92
70968;BME280;58629;48.808;8.820;2023-06-05T05:12:19;97215.66;;;10.37;80.02
70968;BME280;58629;48.808;8.820;2023-06-05T05:14:44;97215.44;;;10.51;78.51
70968;BME280;58629;48.808;8.820;2023-06-05T05:17:10;97216.69;;;10.66;78.56
70968;BME280;58629;48.808;8.820;2023-06-05T05:19:35;97218.66;;;10.85;78.04
70968;BME280;58629;48.808;8.820;2023-06-05T05:22:00;97212.72;;;11.01;76.77
70968;BME280;58629;48.808;8.820;2023-06-05T05:24:26;97212.50;;;11.11;74.91
70968;BME280;58629;48.808;8.820;2023-06-05T05:26:52;97211.75;;;11.30;75.30
70968;BME280;58629;48.808;8.820;2023-06-05T05:29:17;97214.47;;;11.47;75.10
70968;BME280;58629;48.808;8.820;2023-06-05T05:31:43;97211.94;;;11.59;74.36
70968;BME280;58629;48.808;8.820;2023-06-05T05:34:09;97208.22;;;11.76;73.74
70968;BME280;58629;48.808;8.820;2023-06-05T05:36:34;97208.22;;;11.92;73.14
70968;BME280;58629;48.808;8.820;2023-06-05T05:39:02;97206.78;;;12.07;73.09
70968;BME280;58629;48.808;8.820;2023-06-05T05:41:28;97213.25;;;12.23;73.93
70968;BME280;58629;48.808;8.820;2023-06-05T05:43:53;97213.25;;;12.39;72.88
70968;BME280;58629;48.808;8.820;2023-06-05T05:46:18;97214.72;;;12.56;72.64
70968;BME280;58629;48.808;8.820;2023-06-05T05:48:43;97211.72;;;12.70;71.48
70968;BME280;58629;48.808;8.820;2023-06-05T05:51:09;97215.13;;;12.86;71.62
70968;BME280;58629;48.808;8.820;2023-06-05T05:53:34;97209.53;;;12.97;71.10
70968;BME280;58629;48.808;8.820;2023-06-05T05:56:00;97215.50;;;13.17;70.36
70968;BME280;58629;48.808;8.820;2023-06-05T05:58:26;97213.72;;;13.39;70.01
70968;BME280;58629;48.808;8.820;2023-06-05T06:00:51;97216.75;;;13.54;69.86
70968;BME280;58629;48.808;8.820;2023-06-05T06:03:18;97214.03;;;13.70;68.36
70968;BME280;58629;48.808;8.820;2023-06-05T06:05:43;97214.66;;;13.86;67.40
70968;BME280;58629;48.808;8.820;2023-06-05T06:08:10;97215.75;;;14.02;66.42
70968;BME280;58629;48.808;8.820;2023-06-05T06:10:36;97208.28;;;14.22;66.56
70968;BME280;58629;48.808;8.820;2023-06-05T06:13:01;97209.34;;;14.37;66.30
70968;BME280;58629;48.808;8.820;2023-06-05T06:15:26;97208.34;;;14.56;65.99
70968;BME280;58629;48.808;8.820;2023-06-05T06:17:53;97203.81;;;14.78;65.18
70968;BME280;58629;48.808;8.820;2023-06-05T06:20:18;97201.44;;;14.93;68.97
70968;BME280;58629;48.808;8.820;2023-06-05T06:22:43;97206.16;;;15.10;66.01
70968;BME280;58629;48.808;8.820;2023-06-05T06:25:11;97208.34;;;15.24;63.25
70968;BME280;58629;48.808;8.820;2023-06-05T06:27:37;97205.38;;;15.44;60.31
70968;BME280;58629;48.808;8.820;2023-06-05T06:30:04;97198.84;;;15.67;58.44
70968;BME280;58629;48.808;8.820;2023-06-05T06:32:29;97200.56;;;15.82;57.44
70968;BME280;58629;48.808;8.820;2023-06-05T06:34:56;97205.53;;;16.02;59.07
70968;BME280;58629;48.808;8.820;2023-06-05T06:37:21;97196.69;;;16.14;58.30
70968;BME280;58629;48.808;8.820;2023-06-05T06:39:47;97206.50;;;16.26;58.89
70968;BME280;58629;48.808;8.820;2023-06-05T06:42:13;97204.47;;;16.48;58.74
70968;BME280;58629;48.808;8.820;2023-06-05T06:44:39;97208.06;;;16.54;58.82
70968;BME280;58629;48.808;8.820;2023-06-05T06:47:05;97199.78;;;16.70;58.09
70968;BME280;58629;48.808;8.820;2023-06-05T06:49:31;97200.09;;;16.90;56.82
70968;BME280;58629;48.808;8.820;2023-06-05T06:51:56;97199.50;;;17.13;56.79
70968;BME280;58629;48.808;8.820;2023-06-05T06:54:21;97199.47;;;17.31;54.62
70968;BME280;58629;48.808;8.820;2023-06-05T06:56:47;97193.22;;;17.44;54.99
70968;BME280;58629;48.808;8.820;2023-06-05T06:59:13;97199.47;;;17.59;53.55
70968;BME280;58629;48.808;8.820;2023-06-05T07:01:46;97206.56;;;17.71;53.54
70968;BME280;58629;48.808;8.820;2023-06-05T07:04:12;97205.19;;;17.84;52.78
70968;BME280;58629;48.808;8.820;2023-06-05T07:06:44;97199.31;;;18.04;51.56
70968;BME280;58629;48.808;8.820;2023-06-05T07:09:10;97200.81;;;18.29;51.62
70968;BME280;58629;48.808;8.820;2023-06-05T07:11:35;97192.13;;;18.43;50.75
70968;BME280;58629;48.808;8.820;2023-06-05T07:14:01;97198.25;;;18.67;51.58
70968;BME280;58629;48.808;8.820;2023-06-05T07:16:26;97202.19;;;18.80;51.00
70968;BME280;58629;48.808;8.820;2023-06-05T07:18:51;97198.16;;;18.99;51.88
70968;BME280;58629;48.808;8.820;2023-06-05T07:21:18;97201.97;;;19.08;50.17
70968;BME280;58629;48.808;8.820;2023-06-05T07:23:47;97204.06;;;19.27;49.53
70968;BME280;58629;48.808;8.820;2023-06-05T07:26:13;97201.59;;;19.53;49.29
70968;BME280;58629;48.808;8.820;2023-06-05T07:28:41;97195.09;;;19.59;48.21
70968;BME280;58629;48.808;8.820;2023-06-05T07:31:06;97196.94;;;19.82;48.51
70968;BME280;58629;48.808;8.820;2023-06-05T07:33:32;97192.81;;;20.02;45.80
70968;BME280;58629;48.808;8.820;2023-06-05T07:35:59;97187.13;;;20.29;47.02
70968;BME280;58629;48.808;8.820;2023-06-05T07:38:24;97192.31;;;20.52;45.12
70968;BME280;58629;48.808;8.820;2023-06-05T07:40:51;97192.28;;;20.67;44.79
70968;BME280;58629;48.808;8.820;2023-06-05T07:43:17;97190.19;;;20.77;43.52
70968;BME280;58629;48.808;8.820;2023-06-05T07:45:42;97196.88;;;21.01;43.73
70968;BME280;58629;48.808;8.820;2023-06-05T07:48:08;97187.16;;;21.09;43.09
70968;BME280;58629;48.808;8.820;2023-06-05T07:50:33;97190.38;;;21.39;43.87
70968;BME280;58629;48.808;8.820;2023-06-05T07:52:58;97193.13;;;21.19;43.39
70968;BME280;58629;48.808;8.820;2023-06-05T07:55:23;97193.22;;;21.30;42.70
70968;BME280;58629;48.808;8.820;2023-06-05T07:57:50;97191.53;;;21.32;42.64
70968;BME280;58629;48.808;8.820;2023-06-05T08:00:18;97193.13;;;21.44;42.43
70968;BME280;58629;48.808;8.820;2023-06-05T08:02:44;97196.22;;;21.63;43.11
70968;BME280;58629;48.808;8.820;2023-06-05T08:05:09;97192.13;;;21.73;42.96
70968;BME280;58629;48.808;8.820;2023-06-05T08:07:34;97186.94;;;21.95;42.47
70968;BME280;58629;48.808;8.820;2023-06-05T08:10:00;97188.53;;;22.13;41.88
70968;BME280;58629;48.808;8.820;2023-06-05T08:12:25;97192.84;;;22.36;43.72
70968;BME280;58629;48.808;8.820;2023-06-05T08:14:51;97191.38;;;22.40;42.28
70968;BME280;58629;48.808;8.820;2023-06-05T08:17:16;97191.84;;;22.33;40.88
70968;BME280;58629;48.808;8.820;2023-06-05T08:19:42;97191.22;;;22.55;40.82
70968;BME280;58629;48.808;8.820;2023-06-05T08:22:07;97188.38;;;22.70;42.22
70968;BME280;58629;48.808;8.820;2023-06-05T08:24:33;97185.44;;;22.73;40.50
70968;BME280;58629;48.808;8.820;2023-06-05T08:26:58;97185.03;;;22.97;41.46
70968;BME280;58629;48.808;8.820;2023-06-05T08:29:24;97200.53;;;23.13;39.68
70968;BME280;58629;48.808;8.820;2023-06-05T08:31:50;97184.84;;;23.11;39.95
70968;BME280;58629;48.808;8.820;2023-06-05T08:34:15;97195.97;;;23.41;40.29
70968;BME280;58629;48.808;8.820;2023-06-05T08:36:41;97190.09;;;23.65;40.80
70968;BME280;58629;48.808;8.820;2023-06-05T08:39:07;97191.31;;;23.64;39.96
70968;BME280;58629;48.808;8.820;2023-06-05T08:41:33;97181.22;;;23.59;39.37
70968;BME280;58629;48.808;8.820;2023-06-05T08:44:00;97183.91;;;23.53;39.35
70968;BME280;58629;48.808;8.820;2023-06-05T08:46:28;97186.16;;;23.60;39.86
70968;BME280;58629;48.808;8.820;2023-06-05T08:48:55;97195.97;;;23.80;39.33
70968;BME280;58629;48.808;8.820;2023-06-05T08:51:22;97181.22;;;23.97;40.76
70968;BME280;58629;48.808;8.820;2023-06-05T08:54:02;97184.66;;;23.92;40.56
70968;BME280;58629;48.808;8.820;2023-06-05T08:56:35;97183.91;;;24.20;40.85
70968;BME280;58629;48.808;8.820;2023-06-05T08:59:01;97177.28;;;24.15;41.11
70968;BME280;58629;48.808;8.820;2023-06-05T09:01:30;97184.59;;;24.42;41.43
70968;BME280;58629;48.808;8.820;2023-06-05T09:03:57;97179.72;;;24.24;41.84
70968;BME280;58629;48.808;8.820;2023-06-05T09:06:22;97173.69;;;24.59;41.69
70968;BME280;58629;48.808;8.820;2023-06-05T09:08:48;97181.34;;;24.55;41.40
70968;BME280;58629;48.808;8.820;2023-06-05T09:11:27;97178.63;;;24.60;41.10
70968;BME280;58629;48.808;8.820;2023-06-05T09:14:01;97185.22;;;24.70;41.95
70968;BME280;58629;48.808;8.820;2023-06-05T09:16:38;97176.75;;;25.02;41.92
70968;BME280;58629;48.808;8.820;2023-06-05T09:19:04;97174.13;;;25.31;41.38
70968;BME280;58629;48.808;8.820;2023-06-05T09:21:30;97171.69;;;25.63;41.71
70968;BME280;58629;48.808;8.820;2023-06-05T09:24:15;97175.34;;;25.95;40.36
70968;BME280;58629;48.808;8.820;2023-06-05T09:26:54;97175.31;;;26.01;39.95
70968;BME280;58629;48.808;8.820;2023-06-05T09:29:24;97181.38;;;26.12;39.29
70968;BME280;58629;48.808;8.820;2023-06-05T09:31:52;97177.00;;;25.74;39.14
70968;BME280;58629;48.808;8.820;2023-06-05T09:34:31;97173.59;;;25.68;38.90
70968;BME280;58629;48.808;8.820;2023-06-05T09:36:59;97173.13;;;25.94;39.39
70968;BME280;58629;48.808;8.820;2023-06-05T09:39:26;97165.13;;;25.83;39.11
70968;BME280;58629;48.808;8.820;2023-06-05T09:41:52;97170.94;;;25.92;39.36
70968;BME280;58629;48.808;8.820;2023-06-05T09:44:19;97163.16;;;26.07;39.48
70968;BME280;58629;48.808;8.820;2023-06-05T09:46:55;97164.59;;;26.38;39.20
70968;BME280;58629;48.808;8.820;2023-06-05T09:49:24;97161.44;;;26.52;39.65
70968;BME280;58629;48.808;8.820;2023-06-05T09:51:49;97154.41;;;26.62;38.65
70968;BME280;58629;48.808;8.820;2023-06-05T09:54:16;97158.31;;;26.67;38.47
70968;BME280;58629;48.808;8.820;2023-06-05T09:56:46;97154.53;;;26.94;37.66
70968;BME280;58629;48.808;8.820;2023-06-05T09:59:20;97162.69;;;26.94;37.91
70968;BME280;58629;48.808;8.820;2023-06-05T10:01:48;97161.78;;;26.86;38.15
70968;BME280;58629;48.808;8.820;2023-06-05T10:04:16;97161.94;;;26.32;39.35
70968;BME280;58629;48.808;8.820;2023-06-05T10:06:43;97147.09;;;26.33;38.37
70968;BME280;58629;48.808;8.820;2023-06-05T10:09:10;97150.66;;;26.23;38.24
70968;BME280;58629;48.808;8.820;2023-06-05T10:11:36;97152.50;;;25.85;40.17
70968;BME280;58629;48.808;8.820;2023-06-05T10:14:04;97148.38;;;25.78;39.35
70968;BME280;58629;48.808;8.820;2023-06-05T10:16:33;97155.03;;;25.77;39.53
70968;BME280;58629;48.808;8.820;2023-06-05T10:19:03;97151.69;;;25.66;40.04
70968;BME280;58629;48.808;8.820;2023-06-05T10:21:28;97142.97;;;26.27;40.50
70968;BME280;58629;48.808;8.820;2023-06-05T10:23:59;97153.84;;;25.97;39.86
70968;BME280;58629;48.808;8.820;2023-06-05T10:26:38;97147.94;;;26.47;38.85
70968;BME280;58629;48.808;8.820;2023-06-05T10:29:26;97154.25;;;26.12;38.69
70968;BME280;58629;48.808;8.820;2023-06-05T10:32:02;97155.06;;;26.69;38.26
70968;BME280;58629;48.808;8.820;2023-06-05T10:34:49;97157.69;;;27.17;36.40
70968;BME280;58629;48.808;8.820;2023-06-05T10:39:57;97150.56;;;26.95;36.95
70968;BME280;58629;48.808;8.820;2023-06-05T10:42:27;97149.31;;;27.15;36.46
70968;BME280;58629;48.808;8.820;2023-06-05T10:44:53;97142.31;;;27.19;36.06
70968;BME280;58629;48.808;8.820;2023-06-05T10:52:45;97144.66;;;26.54;36.54
70968;BME280;58629;48.808;8.820;2023-06-05T10:55:11;97142.41;;;26.34;36.64
70968;BME280;58629;48.808;8.820;2023-06-05T10:58:03;97153.19;;;26.82;34.99
70968;BME280;58629;48.808;8.820;2023-06-05T11:00:34;97137.78;;;26.72;34.42
70968;BME280;58629;48.808;8.820;2023-06-05T11:21:10;97124.00;;;28.75;30.39
70968;BME280;58629;48.808;8.820;2023-06-05T11:26:41;97124.78;;;28.62;30.71
70968;BME280;58629;48.808;8.820;2023-06-05T11:29:12;97112.88;;;27.05;35.65
70968;BME280;58629;48.808;8.820;2023-06-05T11:31:38;97118.91;;;27.48;34.44
70968;BME280;58629;48.808;8.820;2023-06-05T11:37:25;97110.47;;;27.01;32.92
70968;BME280;58629;48.808;8.820;2023-06-05T12:02:30;97105.94;;;27.41;32.09
70968;BME280;58629;48.808;8.820;2023-06-05T12:11:25;97103.84;;;26.59;31.95
70968;BME280;58629;48.808;8.820;2023-06-05T12:19:00;97094.00;;;27.44;30.95
70968;BME280;58629;48.808;8.820;2023-06-05T12:24:02;97093.34;;;28.09;28.95
70968;BME280;58629;48.808;8.820;2023-06-05T12:26:27;97093.44;;;28.56;28.26
70968;BME280;58629;48.808;8.820;2023-06-05T12:29:05;97091.69;;;28.19;28.75
70968;BME280;58629;48.808;8.820;2023-06-05T12:31:35;97102.44;;;27.09;29.70
70968;BME280;58629;48.808;8.820;2023-06-05T12:34:02;97091.13;;;26.68;30.42
70968;BME280;58629;48.808;8.820;2023-06-05T12:36:28;97092.22;;;26.40;30.46
70968;BME280;58629;48.808;8.820;2023-06-05T12:38:54;97087.94;;;26.88;29.61
70968;BME280;58629;48.808;8.820;2023-06-05T12:41:19;97092.72;;;27.77;29.56
70968;BME280;58629;48.808;8.820;2023-06-05T12:43:45;97086.66;;;28.10;28.18
70968;BME280;58629;48.808;8.820;2023-06-05T12:46:10;97079.44;;;28.72;27.04
70968;BME280;58629;48.808;8.820;2023-06-05T12:48:39;97080.81;;;28.79;25.88
70968;BME280;58629;48.808;8.820;2023-06-05T12:51:05;97070.28;;;28.49;27.83
70968;BME280;58629;48.808;8.820;2023-06-05T12:53:30;97073.69;;;28.16;29.28
70968;BME280;58629;48.808;8.820;2023-06-05T12:55:56;97068.56;;;27.10;29.91
70968;BME280;58629;48.808;8.820;2023-06-05T12:58:21;97078.38;;;27.00;29.98
70968;BME280;58629;48.808;8.820;2023-06-05T13:00:47;97082.75;;;27.03;31.03
70968;BME280;58629;48.808;8.820;2023-06-05T13:03:12;97078.88;;;27.75;27.97
70968;BME280;58629;48.808;8.820;2023-06-05T13:05:38;97073.66;;;28.29;27.57
70968;BME280;58629;48.808;8.820;2023-06-05T13:08:03;97068.81;;;28.61;26.53
70968;BME280;58629;48.808;8.820;2023-06-05T13:10:29;97068.94;;;28.56;26.96
70968;BME280;58629;48.808;8.820;2023-06-05T13:12:54;97061.50;;;29.10;27.57
70968;BME280;58629;48.808;8.820;2023-06-05T13:15:19;97060.28;;;28.98;26.90
70968;BME280;58629;48.808;8.820;2023-06-05T13:17:45;97059.84;;;29.28;27.09
70968;BME280;58629;48.808;8.820;2023-06-05T13:20:12;97065.50;;;29.51;26.61
70968;BME280;58629;48.808;8.820;2023-06-05T13:22:39;97056.69;;;29.93;26.35
70968;BME280;58629;48.808;8.820;2023-06-05T13:25:06;97064.97;;;29.52;25.41
70968;BME280;58629;48.808;8.820;2023-06-05T13:27:33;97058.75;;;29.72;26.23
70968;BME280;58629;48.808;8.820;2023-06-05T13:29:58;97055.88;;;29.78;25.10
70968;BME280;58629;48.808;8.820;2023-06-05T13:32:23;97049.47;;;29.27;24.86
70968;BME280;58629;48.808;8.820;2023-06-05T13:34:49;97050.50;;;28.82;26.43
70968;BME280;58629;48.808;8.820;2023-06-05T13:37:14;97055.28;;;28.43;26.53
70968;BME280;58629;48.808;8.820;2023-06-05T13:39:39;97042.88;;;27.82;27.73
70968;BME280;58629;48.808;8.820;2023-06-05T13:42:05;97040.31;;;28.83;28.19
70968;BME280;58629;48.808;8.820;2023-06-05T13:44:31;97042.13;;;29.63;25.99
70968;BME280;58629;48.808;8.820;2023-06-05T13:46:56;97032.91;;;30.02;25.44
70968;BME280;58629;48.808;8.820;2023-06-05T13:49:22;97033.84;;;30.47;24.16
70968;BME280;58629;48.808;8.820;2023-06-05T13:51:48;97029.72;;;30.69;23.84
70968;BME280;58629;48.808;8.820;2023-06-05T13:54:13;97035.72;;;30.67;23.77
70968;BME280;58629;48.808;8.820;2023-06-05T13:56:38;97029.38;;;30.80;23.67
70968;BME280;58629;48.808;8.820;2023-06-05T13:59:04;97034.97;;;30.52;24.25
70968;BME280;58629;48.808;8.820;2023-06-05T14:01:29;97029.91;;;30.20;23.36
70968;BME280;58629;48.808;8.820;2023-06-05T14:03:54;97035.97;;;29.98;23.87
70968;BME280;58629;48.808;8.820;2023-06-05T14:06:20;97033.41;;;30.28;23.64
70968;BME280;58629;48.808;8.820;2023-06-05T14:08:46;97030.06;;;30.58;23.09
70968;BME280;58629;48.808;8.820;2023-06-05T14:11:11;97020.34;;;30.34;22.12
70968;BME280;58629;48.808;8.820;2023-06-05T14:13:37;97024.91;;;30.47;23.01
70968;BME280;58629;48.808;8.820;2023-06-05T14:16:02;97022.22;;;30.62;22.21